Liebenthal, KS (67553)

7:32 AM CDT on July 25, 2016 (GMT -0500)
Rural Ellis Co. | | Change Station

Elev 2077 ft 38.81 °N, 99.37 °W | Updated 8 minutes ago

Clear
Clear
66.7 °F
Feels Like 66.7 °F
N
14.5
Wind Variable Wind from NE

Today
High -- | Low -- °F
--% Chance of Precip.
Yesterday
High -- | Low -- °F
Precip. -- in
Pressure 30.08 in
Visibility 10.0 miles
Clouds Clear
Dew Point 66 °F
Humidity 99%
Rainfall 1.57 in
Snow Depth Not available.
6:33 AM 8:53 PM
Waning Gibbous, 66% visible
METAR KHYS 251215Z 05015G21KT 10SM CLR 19/14 A3008 RMK AO1
Pressure 30.08 in
Visibility 10.0 miles
Clouds Clear
Dew Point 66 °F
Humidity 99%
Rainfall 1.57 in
Snow Depth Not available.
6:33 AM 8:53 PM
Waning Gibbous, 66% visible
METAR KHYS 251215Z 05015G21KT 10SM CLR 19/14 A3008 RMK AO1

10-Day Weather Forecast

Almanac

Astronomy

Jul. 25, 2016 Rise Set
Actual Time
Civil Twilight
Nautical Twilight
Astronomical Twilight
Moon
Length of Visible Light
Length of Day
Tomorrow will be .
, % of the Moon is Illuminated

Today's Extremes

State Highs State Lows

Community

WunderPhotos

Upload Photos

1,927,296 photos uploaded!

WunderBlog® & News

Nearby

Air Quality

  Air Quality AQ Index Pollutant
Not available.

Snow Depth

Station Depth Elevation

Earthquake Activity

City Distance Mag. Time & Date
Minimum magnitude displayed is 2.5.

Coastal Water Temperatures

Place Temperature

Stations

Nearby Weather Stations

Station Location Temp. Windchill Dew Point Humidity Wind Precip. Elev Updated Type
                   

Watches & Warnings

There are currently no watches in effect.